Time;durP1;ratioP1;P1;durP2;ratioP2;P2;SDS_P1;SDS_P2;PMS_P1;PMS_P2;Temp;Humidity;BMP_temperature;BMP_pressure;BME280_temperature;BME280_humidity;BME280_pressure;Samples;Min_cycle;Max_cycle;Signal;HPM_P1;HPM_P2
2023/11/11 00:01:55;;;;;;;4.03;2.95;;;;;;;8.90;100.00;99547.81;5032603;28;20129;-67
2023/11/11 00:04:23;;;;;;;6.78;3.33;;;;;;;9.01;100.00;99559.69;5046995;28;20029;-67
2023/11/11 00:06:49;;;;;;;6.03;3.30;;;;;;;9.07;100.00;99564.19;5032046;28;20029;-67
2023/11/11 00:09:15;;;;;;;6.10;3.50;;;;;;;9.13;100.00;99563.28;5032378;28;20102;-66
2023/11/11 00:11:41;;;;;;;4.82;3.40;;;;;;;9.17;100.00;99567.19;5031828;28;20100;-67
2023/11/11 00:14:08;;;;;;;6.43;3.60;;;;;;;9.15;100.00;99566.59;5032266;28;20116;-66
2023/11/11 00:16:34;;;;;;;4.55;3.80;;;;;;;9.06;100.00;99551.81;5032095;28;20033;-67
2023/11/11 00:19:01;;;;;;;5.07;3.63;;;;;;;9.10;100.00;99560.22;5032215;28;20048;-67
2023/11/11 00:21:27;;;;;;;6.28;3.40;;;;;;;9.02;100.00;99557.84;5032347;28;20034;-66
2023/11/11 00:23:52;;;;;;;4.78;3.33;;;;;;;9.02;100.00;99560.53;5031917;28;20152;-67
2023/11/11 00:26:18;;;;;;;5.25;3.60;;;;;;;9.10;100.00;99557.53;5030533;28;20083;-67
2023/11/11 00:28:43;;;;;;;5.22;3.60;;;;;;;8.94;100.00;99549.03;5039270;28;20472;-67
2023/11/11 00:31:10;;;;;;;4.10;3.45;;;;;;;8.96;100.00;99564.06;5036824;28;20038;-66
2023/11/11 00:33:38;;;;;;;4.82;3.40;;;;;;;8.91;100.00;99559.38;5032524;28;20079;-67
2023/11/11 00:36:05;;;;;;;7.32;3.60;;;;;;;8.90;100.00;99561.22;5031762;28;20124;-67
2023/11/11 00:38:31;;;;;;;5.85;3.55;;;;;;;8.90;100.00;99560.41;5031005;28;20117;-67
2023/11/11 00:40:56;;;;;;;4.70;3.53;;;;;;;8.83;100.00;99546.22;5030543;28;20180;-67
2023/11/11 00:43:22;;;;;;;4.63;3.50;;;;;;;8.93;100.00;99568.00;5030597;28;20029;-67
2023/11/11 00:45:47;;;;;;;3.90;3.17;;;;;;;8.89;100.00;99556.09;5030551;28;20030;-67
2023/11/11 00:48:13;;;;;;;4.05;3.58;;;;;;;9.05;100.00;99566.28;5030338;28;20433;-66
2023/11/11 00:50:38;;;;;;;5.45;3.63;;;;;;;9.20;100.00;99573.97;5031174;28;20038;-66
2023/11/11 00:53:04;;;;;;;6.07;3.20;;;;;;;9.25;100.00;99574.16;5031665;28;20140;-66
2023/11/11 00:55:29;;;;;;;4.00;2.88;;;;;;;9.32;100.00;99580.25;5030344;28;20396;-67
2023/11/11 00:57:56;;;;;;;5.43;3.05;;;;;;;9.33;100.00;99575.72;5029933;28;20475;-66
2023/11/11 01:00:22;;;;;;;4.55;3.20;;;;;;;9.32;100.00;99577.59;5029942;28;20056;-67
2023/11/11 01:02:51;;;;;;;6.00;2.60;;;;;;;9.33;100.00;99584.59;5031468;28;20080;-67
2023/11/11 01:05:17;;;;;;;4.80;2.92;;;;;;;9.34;100.00;99580.88;5031189;28;20395;-66
2023/11/11 01:07:42;;;;;;;5.80;3.28;;;;;;;9.38;100.00;99587.44;5031089;28;20110;-67
2023/11/11 01:10:08;;;;;;;5.53;3.65;;;;;;;9.36;100.00;99594.06;5031245;28;20036;-67
2023/11/11 01:12:38;;;;;;;5.35;3.15;;;;;;;9.36;100.00;99594.88;5046364;28;20056;-67
2023/11/11 01:15:08;;;;;;;5.97;3.83;;;;;;;9.28;100.00;99600.53;5046224;28;20036;-67
2023/11/11 01:17:35;;;;;;;8.02;3.95;;;;;;;9.19;100.00;99593.81;5030745;28;20136;-67
2023/11/11 01:20:01;;;;;;;7.43;4.32;;;;;;;9.23;100.00;99608.41;5031136;28;20079;-67
2023/11/11 01:22:26;;;;;;;7.22;4.57;;;;;;;9.28;100.00;99605.91;5030903;28;20029;-67
2023/11/11 01:24:52;;;;;;;5.28;4.00;;;;;;;9.38;100.00;99610.78;5032608;28;20530;-67
2023/11/11 01:27:17;;;;;;;5.63;4.05;;;;;;;9.44;100.00;99614.44;5042457;28;20024;-67
2023/11/11 01:29:43;;;;;;;9.90;4.00;;;;;;;9.52;100.00;99622.22;5039526;28;20144;-67
2023/11/11 01:32:08;;;;;;;6.20;3.80;;;;;;;9.52;100.00;99614.97;5030979;28;20017;-66
2023/11/11 01:34:34;;;;;;;4.88;4.28;;;;;;;9.50;100.00;99626.97;5030349;28;20037;-67
2023/11/11 01:37:05;;;;;;;8.18;4.72;;;;;;;9.40;100.00;99622.97;5029630;28;20503;-67
2023/11/11 01:39:31;;;;;;;7.50;4.70;;;;;;;9.46;100.00;99626.59;5013808;28;20037;-67
2023/11/11 01:41:57;;;;;;;8.77;4.85;;;;;;;9.34;100.00;99625.69;5031031;28;20021;-67
2023/11/11 01:44:23;;;;;;;10.63;4.68;;;;;;;9.34;100.00;99633.75;5029571;28;20032;-67
2023/11/11 01:46:49;;;;;;;7.18;4.60;;;;;;;9.38;100.00;99630.41;5031108;28;20411;-67
2023/11/11 01:49:15;;;;;;;9.27;5.00;;;;;;;9.47;100.00;99627.41;5031234;28;20028;-66
2023/11/11 01:51:43;;;;;;;11.52;5.05;;;;;;;9.45;100.00;99624.16;5030606;28;20056;-67
2023/11/11 01:54:11;;;;;;;10.82;5.60;;;;;;;9.33;100.00;99626.72;5030625;28;20064;-66
2023/11/11 01:56:37;;;;;;;11.32;5.45;;;;;;;9.03;100.00;99588.97;5029356;28;20033;-67
2023/11/11 01:59:02;;;;;;;13.93;6.13;;;;;;;9.29;100.00;99625.53;5030314;28;20031;-67
2023/11/11 02:01:28;;;;;;;13.63;5.85;;;;;;;9.24;100.00;99626.19;5029508;28;20373;-66
2023/11/11 02:03:53;;;;;;;15.35;7.25;;;;;;;9.08;100.00;99640.97;5030586;28;20029;-67
2023/11/11 02:06:19;;;;;;;17.58;8.77;;;;;;;8.81;100.00;99618.06;5016246;28;20713;-67
2023/11/11 02:08:44;;;;;;;18.95;8.65;;;;;;;8.95;100.00;99641.06;5029163;28;20053;-67
2023/11/11 02:11:10;;;;;;;21.83;9.20;;;;;;;8.88;100.00;99635.75;5045761;28;20025;-67
2023/11/11 02:13:37;;;;;;;17.75;9.05;;;;;;;9.03;100.00;99637.28;5030406;28;20036;-67
2023/11/11 02:16:04;;;;;;;19.88;9.15;;;;;;;9.02;100.00;99632.97;5029094;28;20112;-67
2023/11/11 02:18:31;;;;;;;22.15;9.93;;;;;;;8.91;100.00;99634.50;5030240;28;20037;-67
2023/11/11 02:20:58;;;;;;;18.45;9.25;;;;;;;8.79;100.00;99639.72;5030516;28;20447;-67
2023/11/11 02:23:34;;;;;;;20.35;9.57;;;;;;;8.80;100.00;99649.41;5047484;28;20029;-67
2023/11/11 02:26:04;;;;;;;17.83;9.45;;;;;;;8.81;100.00;99647.56;5047819;28;20044;-67
2023/11/11 02:28:30;;;;;;;15.25;8.80;;;;;;;8.75;100.00;99649.25;5032928;28;20056;-67
2023/11/11 02:30:56;;;;;;;20.48;9.07;;;;;;;8.91;100.00;99651.41;5033996;28;20040;-67
2023/11/11 02:33:22;;;;;;;18.30;9.10;;;;;;;8.71;100.00;99634.63;5033932;28;20469;-67
2023/11/11 02:35:48;;;;;;;16.20;8.95;;;;;;;8.80;100.00;99654.75;5032513;28;20033;-67
2023/11/11 02:38:14;;;;;;;21.75;9.32;;;;;;;8.64;100.00;99649.91;5033152;28;20048;-67
2023/11/11 02:40:39;;;;;;;21.02;9.55;;;;;;;8.63;100.00;99651.75;5033646;28;20022;-67
2023/11/11 02:43:05;;;;;;;20.65;9.68;;;;;;;8.56;100.00;99642.94;5032782;28;20033;-67
2023/11/11 02:45:31;;;;;;;17.42;8.80;;;;;;;8.56;100.00;99647.47;5033665;28;20052;-66
2023/11/11 02:47:57;;;;;;;19.08;9.02;;;;;;;8.41;100.00;99653.09;5033224;28;20038;-67
2023/11/11 02:50:23;;;;;;;18.23;9.25;;;;;;;8.37;100.00;99650.00;5032034;28;20501;-67
2023/11/11 02:52:49;;;;;;;17.27;9.05;;;;;;;8.43;100.00;99657.22;5031077;28;20044;-67
2023/11/11 02:55:15;;;;;;;19.20;9.20;;;;;;;8.45;100.00;99652.50;5030676;28;20037;-67
2023/11/11 02:57:43;;;;;;;18.15;9.43;;;;;;;8.38;100.00;99650.88;5031839;28;20037;-67
2023/11/11 03:00:10;;;;;;;18.15;8.45;;;;;;;8.36;100.00;99652.91;5031828;28;20063;-67
2023/11/11 03:02:40;;;;;;;15.45;9.27;;;;;;;8.26;100.00;99637.28;5032382;28;20033;-67
2023/11/11 03:05:06;;;;;;;31.80;9.77;;;;;;;8.54;100.00;99654.91;5032001;28;20036;-67
2023/11/11 03:07:34;;;;;;;20.75;9.25;;;;;;;8.58;100.00;99661.50;5033006;28;20033;-67
2023/11/11 03:10:04;;;;;;;24.63;9.55;;;;;;;8.59;100.00;99655.09;5033245;28;20079;-67
2023/11/11 03:12:30;;;;;;;17.38;8.38;;;;;;;8.45;100.00;99663.22;5033768;28;20364;-67
2023/11/11 03:14:56;;;;;;;21.17;8.85;;;;;;;8.20;100.00;99657.69;5048403;28;20603;-67
2023/11/11 03:17:21;;;;;;;16.85;8.40;;;;;;;8.30;100.00;99667.16;5033266;28;20493;-67
2023/11/11 03:19:47;;;;;;;15.68;7.85;;;;;;;8.36;100.00;99669.00;5040870;28;20017;-67
2023/11/11 03:22:12;;;;;;;20.90;8.75;;;;;;;8.37;100.00;99674.13;5050282;28;20060;-67
2023/11/11 03:24:38;;;;;;;17.60;8.75;;;;;;;8.39;100.00;99669.41;5038161;28;20396;-67
2023/11/11 03:27:03;;;;;;;15.43;8.35;;;;;;;8.46;100.00;99674.75;5033080;28;20049;-67
2023/11/11 03:29:29;;;;;;;16.58;8.65;;;;;;;8.69;100.00;99680.41;5033184;28;20057;-67
2023/11/11 03:31:54;;;;;;;13.40;7.28;;;;;;;8.43;100.00;99678.66;5033163;28;20021;-67
2023/11/11 03:34:19;;;;;;;13.95;7.80;;;;;;;8.35;100.00;99684.25;5032981;28;20099;-67
2023/11/11 03:36:45;;;;;;;13.45;7.95;;;;;;;8.34;100.00;99689.81;5031469;28;20029;-67
2023/11/11 03:39:10;;;;;;;18.95;7.75;;;;;;;8.48;100.00;99678.06;5030350;28;20030;-67
2023/11/11 03:41:35;;;;;;;17.33;8.70;;;;;;;8.49;100.00;99690.41;5031526;28;20037;-67
2023/11/11 03:44:01;;;;;;;12.35;7.43;;;;;;;8.55;100.00;99691.44;5032863;28;20030;-67
2023/11/11 03:46:26;;;;;;;14.85;8.50;;;;;;;8.34;100.00;99687.13;5032634;28;20503;-67
2023/11/11 03:48:52;;;;;;;16.63;8.48;;;;;;;8.19;100.00;99674.81;5033087;28;20026;-67
2023/11/11 03:51:17;;;;;;;20.60;9.13;;;;;;;8.22;100.00;99684.31;5032737;28;20053;-67
2023/11/11 03:53:43;;;;;;;18.00;8.77;;;;;;;8.29;100.00;99684.28;5032405;28;20056;-67
2023/11/11 03:56:08;;;;;;;18.98;8.93;;;;;;;8.35;100.00;99686.94;5033131;28;20037;-67
2023/11/11 03:58:35;;;;;;;15.50;7.65;;;;;;;8.18;100.00;99693.81;5050000;28;20009;-67
2023/11/11 04:01:00;;;;;;;16.02;8.27;;;;;;;8.10;100.00;99680.63;5043772;28;20029;-67
2023/11/11 04:03:26;;;;;;;13.63;8.15;;;;;;;7.98;100.00;99685.81;5014812;28;20102;-67
2023/11/11 04:05:51;;;;;;;13.98;8.60;;;;;;;8.11;100.00;99684.94;5015278;28;20370;-67
2023/11/11 04:08:17;;;;;;;17.90;8.82;;;;;;;8.15;100.00;99675.47;5032027;28;20038;-67
2023/11/11 04:10:42;;;;;;;16.58;8.23;;;;;;;7.64;100.00;99619.94;5031020;28;20102;-67
2023/11/11 04:13:09;;;;;;;14.20;7.93;;;;;;;8.15;100.00;99692.38;5031155;28;20160;-67
2023/11/11 04:15:34;;;;;;;9.38;6.70;;;;;;;7.96;100.00;99686.00;5032272;28;20029;-67
2023/11/11 04:18:00;;;;;;;11.75;7.45;;;;;;;8.13;100.00;99702.44;5030844;28;20049;-67
2023/11/11 04:20:25;;;;;;;10.30;6.15;;;;;;;8.33;100.00;99707.75;5031893;28;20021;-67
2023/11/11 04:22:50;;;;;;;9.55;6.35;;;;;;;8.38;100.00;99716.03;5047494;28;20125;-67
2023/11/11 04:25:16;;;;;;;9.05;6.57;;;;;;;8.19;100.00;99701.63;5032400;28;20038;-67
2023/11/11 04:27:42;;;;;;;9.82;6.70;;;;;;;8.30;100.00;99716.22;5031623;28;20021;-67
2023/11/11 04:30:09;;;;;;;10.02;6.60;;;;;;;8.44;100.00;99727.75;5029418;28;20111;-67
2023/11/11 04:32:35;;;;;;;11.40;6.80;;;;;;;8.35;100.00;99703.03;5031839;28;20113;-67
2023/11/11 04:35:01;;;;;;;13.77;7.07;;;;;;;8.36;100.00;99720.75;5031665;28;20108;-67
2023/11/11 04:37:26;;;;;;;9.68;6.75;;;;;;;8.24;100.00;99725.94;5046594;28;20031;-68
2023/11/11 04:39:58;;;;;;;9.43;6.82;;;;;;;8.41;100.00;99731.69;5031570;28;20034;-67
2023/11/11 04:42:26;;;;;;;12.45;6.63;;;;;;;8.50;100.00;99720.72;5031206;28;20514;-67
2023/11/11 04:44:53;;;;;;;10.25;6.50;;;;;;;8.30;100.00;99729.63;5032025;28;20438;-67
2023/11/11 04:47:18;;;;;;;11.52;6.75;;;;;;;8.31;100.00;99730.44;5032024;28;20380;-67
2023/11/11 04:49:44;;;;;;;10.25;6.80;;;;;;;8.23;100.00;99726.94;5047688;28;20046;-67
2023/11/11 04:52:12;;;;;;;9.23;6.50;;;;;;;8.37;100.00;99740.31;5047024;28;20503;-67
2023/11/11 04:54:38;;;;;;;11.00;6.35;;;;;;;8.45;100.00;99742.81;5032140;28;20029;-67
2023/11/11 04:57:03;;;;;;;9.95;6.40;;;;;;;8.36;100.00;99739.50;5031751;28;20033;-67
2023/11/11 04:59:29;;;;;;;10.57;6.18;;;;;;;8.43;100.00;99745.69;5031887;28;20049;-67
2023/11/11 05:01:55;;;;;;;10.00;6.40;;;;;;;8.50;100.00;99734.13;5029815;28;20032;-67
2023/11/11 05:04:21;;;;;;;13.90;6.82;;;;;;;8.52;100.00;99746.28;5028582;28;20128;-67
2023/11/11 05:06:46;;;;;;;10.35;6.72;;;;;;;8.49;100.00;99743.22;5029261;28;20044;-67
2023/11/11 05:09:12;;;;;;;9.85;6.50;;;;;;;8.36;100.00;99744.88;5030958;28;20033;-67
2023/11/11 05:11:38;;;;;;;11.60;6.80;;;;;;;8.34;100.00;99744.25;5030593;28;20047;-67
2023/11/11 05:14:09;;;;;;;11.45;6.43;;;;;;;8.32;100.00;99743.63;5030800;28;20060;-67
2023/11/11 05:16:43;;;;;;;10.65;6.28;;;;;;;8.13;100.00;99731.94;5029064;28;20038;-67
2023/11/11 05:19:10;;;;;;;12.88;5.97;;;;;;;8.21;100.00;99741.59;5030644;28;20132;-67
2023/11/11 05:21:36;;;;;;;8.98;5.68;;;;;;;8.25;100.00;99756.25;5030596;28;20040;-67
2023/11/11 05:24:02;;;;;;;10.82;6.30;;;;;;;8.33;100.00;99753.31;5029475;28;20124;-67
2023/11/11 05:26:28;;;;;;;13.15;6.45;;;;;;;8.22;100.00;99745.94;5046127;28;20445;-67
2023/11/11 05:28:55;;;;;;;9.18;6.45;;;;;;;8.22;100.00;99762.00;5030643;28;20461;-67
2023/11/11 05:31:28;;;;;;;10.07;6.30;;;;;;;8.28;100.00;99749.63;5030758;28;20112;-67
2023/11/11 05:33:55;;;;;;;11.73;6.22;;;;;;;8.23;100.00;99758.28;5031422;28;20036;-67
2023/11/11 05:36:21;;;;;;;11.57;6.70;;;;;;;8.33;100.00;99769.41;5029962;28;20125;-67
2023/11/11 05:38:49;;;;;;;9.23;6.63;;;;;;;8.14;100.00;99770.25;5031177;28;20052;-67
2023/11/11 05:41:16;;;;;;;8.25;5.68;;;;;;;8.23;100.00;99766.34;5029896;28;20026;-67
2023/11/11 05:43:41;;;;;;;10.95;6.38;;;;;;;8.23;100.00;99771.69;5030753;28;20726;-67
2023/11/11 05:46:08;;;;;;;9.02;5.90;;;;;;;8.19;100.00;99765.94;5030907;28;20571;-67
2023/11/11 05:48:37;;;;;;;11.30;6.00;;;;;;;8.45;100.00;99775.81;5029703;28;20420;-67
2023/11/11 05:51:04;;;;;;;9.13;6.03;;;;;;;8.61;100.00;99774.53;5046577;28;20065;-67
2023/11/11 05:53:31;;;;;;;11.68;6.18;;;;;;;8.62;100.00;99783.38;5032436;28;20049;-67
2023/11/11 05:55:56;;;;;;;11.57;6.55;;;;;;;8.62;100.00;99786.88;5046590;28;20369;-68
2023/11/11 05:58:26;;;;;;;10.75;5.88;;;;;;;8.52;100.00;99788.38;5039355;28;20029;-67
2023/11/11 06:00:52;;;;;;;10.25;5.68;;;;;;;8.44;100.00;99792.09;5030791;28;20086;-67
2023/11/11 06:03:20;;;;;;;10.57;5.60;;;;;;;8.60;100.00;99790.81;5033523;28;20434;-67
2023/11/11 06:05:46;;;;;;;8.80;5.38;;;;;;;8.53;100.00;99790.84;5034955;28;20052;-67
2023/11/11 06:08:12;;;;;;;9.55;5.50;;;;;;;8.51;100.00;99778.66;5034239;28;20033;-67
2023/11/11 06:10:38;;;;;;;12.82;5.70;;;;;;;8.52;100.00;99789.19;5034591;28;20037;-67
2023/11/11 06:13:07;;;;;;;10.40;5.80;;;;;;;8.53;100.00;99785.47;5033059;28;20154;-67
2023/11/11 06:15:36;;;;;;;9.00;5.82;;;;;;;8.34;100.00;99787.13;5033874;28;20044;-67
2023/11/11 06:18:02;;;;;;;10.02;5.68;;;;;;;8.37;100.00;99794.75;5050102;28;20112;-67
2023/11/11 06:20:30;;;;;;;11.32;5.57;;;;;;;8.43;100.00;99798.47;5032957;28;20504;-67
2023/11/11 06:22:59;;;;;;;11.40;6.43;;;;;;;8.40;100.00;99799.72;5021456;28;20030;-67
2023/11/11 06:25:25;;;;;;;12.68;6.35;;;;;;;8.25;100.00;99780.34;5014809;28;20033;-68
2023/11/11 06:27:52;;;;;;;11.18;6.40;;;;;;;8.48;100.00;99814.78;5029749;28;20022;-67
2023/11/11 06:30:19;;;;;;;11.88;6.38;;;;;;;8.28;100.00;99785.31;5014812;28;20030;-67
2023/11/11 06:32:45;;;;;;;11.43;6.00;;;;;;;8.49;100.00;99813.75;5013162;28;20026;-67
2023/11/11 06:35:12;;;;;;;13.05;5.90;;;;;;;8.49;100.00;99819.09;5030934;28;20021;-67
2023/11/11 06:37:39;;;;;;;11.68;6.70;;;;;;;8.40;100.00;99809.63;5013853;28;20686;-67
2023/11/11 06:40:06;;;;;;;11.98;6.15;;;;;;;8.50;100.00;99827.97;5014183;28;20038;-67
2023/11/11 06:42:32;;;;;;;13.68;6.20;;;;;;;8.58;100.00;99822.41;5029156;28;20029;-67
2023/11/11 06:44:59;;;;;;;13.80;6.55;;;;;;;8.69;100.00;99841.31;5013054;28;20038;-67
2023/11/11 06:47:24;;;;;;;9.77;5.68;;;;;;;8.78;100.00;99841.13;5014271;28;20104;-67
2023/11/11 06:49:50;;;;;;;10.23;5.45;;;;;;;8.80;100.00;99845.22;5014408;28;20572;-66
2023/11/11 06:52:15;;;;;;;10.07;5.85;;;;;;;8.59;100.00;99851.66;5013179;28;20543;-67
2023/11/11 06:54:41;;;;;;;11.32;5.90;;;;;;;8.50;100.00;99854.78;5012494;28;20396;-67
2023/11/11 06:57:06;;;;;;;12.35;5.97;;;;;;;8.61;100.00;99854.13;5012656;28;20038;-67
2023/11/11 06:59:32;;;;;;;10.98;6.07;;;;;;;8.72;100.00;99858.03;5012151;28;20554;-67
2023/11/11 07:01:58;;;;;;;13.30;5.90;;;;;;;8.61;100.00;99854.97;5013678;28;20038;-68
2023/11/11 07:04:23;;;;;;;10.20;5.93;;;;;;;8.58;100.00;99855.38;5020816;28;20041;-68
2023/11/11 07:06:48;;;;;;;12.02;6.18;;;;;;;8.63;100.00;99854.75;5013583;28;20592;-69
2023/11/11 07:09:14;;;;;;;13.00;6.20;;;;;;;8.60;100.00;99857.84;5011844;28;20125;-68
2023/11/11 07:11:39;;;;;;;10.48;6.05;;;;;;;8.62;100.00;99855.78;5012009;28;20030;-67
2023/11/11 07:14:06;;;;;;;11.52;6.00;;;;;;;8.70;100.00;99860.91;5013365;28;20032;-66
2023/11/11 07:16:32;;;;;;;12.93;5.90;;;;;;;8.68;100.00;99863.00;5013039;28;20038;-67
2023/11/11 07:18:58;;;;;;;16.85;7.65;;;;;;;8.60;100.00;99864.03;5013570;28;20034;-67
2023/11/11 07:21:24;;;;;;;12.70;5.70;;;;;;;8.44;100.00;99841.19;5013399;28;20037;-67
2023/11/11 07:23:53;;;;;;;11.07;6.07;;;;;;;8.70;100.00;99868.97;5014100;28;20544;-68
2023/11/11 07:26:19;;;;;;;10.60;6.15;;;;;;;8.67;100.00;99870.19;5014726;28;20033;-67
2023/11/11 07:28:45;;;;;;;10.68;6.18;;;;;;;8.83;100.00;99871.63;5019336;28;20142;-68
2023/11/11 07:31:22;;;;;;;12.80;6.72;;;;;;;8.81;100.00;99871.03;5017128;28;20025;-68
2023/11/11 07:33:47;;;;;;;12.57;6.38;;;;;;;8.79;100.00;99880.31;4997933;28;20032;-68
2023/11/11 07:36:13;;;;;;;11.73;6.80;;;;;;;8.72;100.00;99883.00;5013963;28;20030;-69
2023/11/11 07:38:39;;;;;;;14.73;7.80;;;;;;;8.62;100.00;99872.69;5013306;28;20026;-69
2023/11/11 07:41:08;;;;;;;18.08;7.78;;;;;;;8.74;100.00;99880.94;5012072;28;20089;-69
2023/11/11 07:43:35;;;;;;;14.45;7.18;;;;;;;8.68;100.00;99881.78;5012020;28;20366;-69
2023/11/11 07:46:05;;;;;;;15.15;7.97;;;;;;;8.73;100.00;99879.28;5011754;28;20137;-69
2023/11/11 07:48:31;;;;;;;15.68;7.75;;;;;;;8.68;100.00;99882.59;5011068;28;20069;-68
2023/11/11 07:50:56;;;;;;;17.10;7.85;;;;;;;8.72;100.00;99891.03;5010993;28;20525;-69
2023/11/11 07:53:22;;;;;;;21.02;7.47;;;;;;;8.69;100.00;99894.97;5009330;28;20384;-69
2023/11/11 07:55:48;;;;;;;14.10;7.97;;;;;;;8.80;100.00;99901.53;5010546;28;20026;-69
2023/11/11 07:58:14;;;;;;;18.73;8.10;;;;;;;8.68;100.00;99889.81;5009830;28;20167;-69
2023/11/11 08:00:39;;;;;;;16.73;7.43;;;;;;;8.74;100.00;99897.03;5010798;28;20426;-68
2023/11/11 08:03:05;;;;;;;15.43;7.38;;;;;;;8.73;100.00;99894.53;5012440;28;20033;-69
2023/11/11 08:05:32;;;;;;;20.60;9.00;;;;;;;8.73;100.00;99895.38;5012264;28;20527;-69
2023/11/11 08:07:58;;;;;;;13.73;7.45;;;;;;;8.81;100.00;99903.22;5012231;28;20477;-69
2023/11/11 08:10:25;;;;;;;25.00;8.30;;;;;;;8.73;100.00;99890.00;5012075;28;20037;-69
2023/11/11 08:12:51;;;;;;;21.42;9.00;;;;;;;8.73;100.00;99906.09;5013343;28;20101;-69
2023/11/11 08:15:19;;;;;;;22.73;8.18;;;;;;;8.64;100.00;99901.97;5012851;28;20079;-69
2023/11/11 08:17:45;;;;;;;18.98;8.55;;;;;;;8.70;100.00;99909.19;5012629;28;20054;-69
2023/11/11 08:20:15;;;;;;;19.02;8.77;;;;;;;8.76;100.00;99908.38;5012634;28;20075;-69
2023/11/11 08:22:42;;;;;;;24.20;8.45;;;;;;;8.85;100.00;99917.03;5012509;28;20022;-68
2023/11/11 08:25:08;;;;;;;22.60;8.95;;;;;;;8.99;100.00;99915.13;5010407;28;20408;-69
2023/11/11 08:27:33;;;;;;;23.33;8.57;;;;;;;8.99;100.00;99920.50;5012348;28;20034;-69
2023/11/11 08:29:59;;;;;;;21.08;7.60;;;;;;;8.84;100.00;99921.56;5012305;28;20032;-69
2023/11/11 08:32:25;;;;;;;18.00;8.25;;;;;;;8.89;100.00;99926.28;5011568;28;20108;-69
2023/11/11 08:34:50;;;;;;;22.05;8.55;;;;;;;8.91;100.00;99902.78;5011340;28;20091;-69
2023/11/11 08:37:16;;;;;;;17.58;7.97;;;;;;;9.17;100.00;99931.38;5011203;28;20038;-69
2023/11/11 08:39:42;;;;;;;14.85;7.78;;;;;;;8.89;100.00;99927.13;5011472;28;20021;-69
2023/11/11 08:42:08;;;;;;;19.70;7.85;;;;;;;8.88;100.00;99930.84;5010757;28;20030;-69
2023/11/11 08:44:33;;;;;;;30.20;8.82;;;;;;;8.78;100.00;99919.72;5027172;28;20055;-69
2023/11/11 08:46:59;;;;;;;19.45;7.97;;;;;;;8.59;100.00;99885.69;5012356;28;20061;-69
2023/11/11 08:49:25;;;;;;;19.80;8.65;;;;;;;8.92;100.00;99931.25;5011430;28;20061;-69
2023/11/11 08:51:51;;;;;;;36.50;9.63;;;;;;;8.97;100.00;99930.59;5010551;28;20021;-68
2023/11/11 08:54:16;;;;;;;25.95;8.10;;;;;;;8.93;100.00;99930.19;5011595;28;20030;-69
2023/11/11 08:56:42;;;;;;;33.45;9.02;;;;;;;8.79;100.00;99934.78;5010224;28;20041;-69
2023/11/11 08:59:08;;;;;;;22.00;9.00;;;;;;;8.85;100.00;99935.81;5011539;28;20080;-69
2023/11/11 09:01:34;;;;;;;15.70;8.32;;;;;;;9.01;100.00;99935.34;5011267;28;20374;-69
2023/11/11 09:04:00;;;;;;;21.33;8.30;;;;;;;8.97;100.00;99941.34;5010923;28;20070;-69
2023/11/11 09:06:27;;;;;;;19.70;8.43;;;;;;;8.99;100.00;99939.28;5010637;28;20481;-69
2023/11/11 09:08:53;;;;;;;26.30;8.88;;;;;;;9.14;100.00;99945.25;5011750;28;20482;-69
2023/11/11 09:11:18;;;;;;;18.70;8.15;;;;;;;9.02;100.00;99949.59;5011688;28;20064;-69
2023/11/11 09:13:44;;;;;;;21.23;8.32;;;;;;;9.06;100.00;99951.63;5011124;28;20695;-69
2023/11/11 09:16:10;;;;;;;16.10;7.55;;;;;;;9.04;100.00;99951.03;5012016;28;20026;-69
2023/11/11 09:18:36;;;;;;;18.50;7.25;;;;;;;9.02;100.00;99952.28;5010265;28;20033;-69
2023/11/11 09:21:05;;;;;;;14.02;7.38;;;;;;;9.12;100.00;99952.66;5012119;28;20057;-68
2023/11/11 09:23:31;;;;;;;16.00;7.95;;;;;;;9.01;100.00;99956.00;5023164;28;20040;-69
2023/11/11 09:25:56;;;;;;;12.88;7.18;;;;;;;8.96;100.00;99950.44;5011917;28;20029;-69
2023/11/11 09:28:23;;;;;;;12.98;7.47;;;;;;;9.14;100.00;99956.78;5011843;28;20108;-69
2023/11/11 09:30:49;;;;;;;13.80;7.18;;;;;;;9.26;100.00;99964.19;5012244;28;20065;-69
2023/11/11 09:33:14;;;;;;;14.25;7.38;;;;;;;9.10;100.00;99962.78;5026268;28;20481;-69
2023/11/11 09:35:40;;;;;;;12.90;7.35;;;;;;;9.31;100.00;99962.53;5010957;28;20030;-69
2023/11/11 09:38:06;;;;;;;13.25;6.95;;;;;;;9.34;100.00;99959.41;5010850;28;20401;-69
2023/11/11 09:40:32;;;;;;;11.10;7.15;;;;;;;9.39;100.00;99962.28;5009758;28;20026;-69
2023/11/11 09:42:57;;;;;;;13.07;6.93;;;;;;;9.46;100.00;99966.81;5009915;28;20520;-69
2023/11/11 09:45:23;;;;;;;13.48;7.03;;;;;;;9.57;100.00;99966.97;5009556;28;20034;-69
2023/11/11 09:47:51;;;;;;;14.32;6.38;;;;;;;9.37;100.00;99939.34;5009781;28;20044;-69
2023/11/11 09:50:22;;;;;;;11.70;6.68;;;;;;;9.64;100.00;99966.94;5009078;28;20065;-69
2023/11/11 09:52:49;;;;;;;9.52;6.00;;;;;;;9.67;100.00;99971.91;5010572;28;20026;-69
2023/11/11 09:55:16;;;;;;;9.15;5.97;;;;;;;9.52;100.00;99971.34;5011156;28;20050;-69
2023/11/11 09:57:44;;;;;;;9.57;5.70;;;;;;;9.51;100.00;99977.75;5009054;28;20022;-69
2023/11/11 10:00:11;;;;;;;9.68;5.78;;;;;;;9.28;100.00;99928.03;5009556;28;20572;-69
2023/11/11 10:02:37;;;;;;;9.65;5.78;;;;;;;9.44;100.00;99971.56;5009509;28;20036;-69
2023/11/11 10:05:04;;;;;;;9.98;5.60;;;;;;;9.56;100.00;99981.41;5010077;28;20021;-69
2023/11/11 10:07:29;;;;;;;9.63;5.85;;;;;;;9.62;100.00;99982.44;5010932;28;20030;-69
2023/11/11 10:09:55;;;;;;;11.95;6.22;;;;;;;9.81;100.00;99983.41;5011337;28;20033;-69
2023/11/11 10:12:23;;;;;;;7.88;5.32;;;;;;;9.93;100.00;99978.16;5010992;28;20026;-69
2023/11/11 10:14:48;;;;;;;8.68;5.50;;;;;;;9.89;100.00;99969.69;5010909;28;20030;-69
2023/11/11 10:17:15;;;;;;;8.45;5.80;;;;;;;10.16;100.00;99981.13;5009937;28;20029;-69
2023/11/11 10:19:43;;;;;;;10.32;5.50;;;;;;;10.12;100.00;99955.72;4993324;28;20579;-69
2023/11/11 10:22:09;;;;;;;9.15;5.63;;;;;;;10.32;100.00;99983.31;5010843;28;20033;-69
2023/11/11 10:24:35;;;;;;;8.13;5.10;;;;;;;10.37;100.00;99968.41;5024602;28;20030;-69
2023/11/11 10:27:01;;;;;;;8.30;5.50;;;;;;;10.53;100.00;99976.78;5029223;28;20102;-69
2023/11/11 10:29:26;;;;;;;6.72;5.25;;;;;;;10.69;100.00;99991.50;5019364;28;20133;-69
2023/11/11 10:31:52;;;;;;;7.97;5.20;;;;;;;10.70;100.00;99968.97;5010187;28;20076;-69
2023/11/11 10:34:18;;;;;;;9.88;5.22;;;;;;;10.82;100.00;99987.91;5009344;28;20034;-69
2023/11/11 10:36:45;;;;;;;7.90;5.05;;;;;;;10.67;100.00;99984.72;5011157;28;20033;-69
2023/11/11 10:39:11;;;;;;;7.55;4.90;;;;;;;10.71;100.00;99994.00;5011165;28;20049;-69
2023/11/11 10:41:40;;;;;;;7.03;5.13;;;;;;;10.79;100.00;99985.66;5009406;28;20045;-69
2023/11/11 10:44:07;;;;;;;7.28;4.63;;;;;;;10.96;100.00;99993.97;5025737;28;20117;-69
2023/11/11 10:46:35;;;;;;;6.82;4.70;;;;;;;10.97;100.00;100001.84;5010360;28;20497;-69
2023/11/11 10:49:02;;;;;;;6.30;4.43;;;;;;;10.85;100.00;99986.63;5012698;28;20427;-69
2023/11/11 10:51:29;;;;;;;8.32;4.72;;;;;;;10.74;100.00;99988.19;5012607;28;20025;-69
2023/11/11 10:53:55;;;;;;;7.28;5.03;;;;;;;10.56;100.00;99970.09;5013144;28;20130;-69
2023/11/11 10:56:21;;;;;;;6.78;4.60;;;;;;;10.62;100.00;99993.44;5013258;28;20032;-69
2023/11/11 10:58:48;;;;;;;6.28;4.75;;;;;;;10.56;100.00;99988.94;5041998;28;20101;-69
2023/11/11 11:01:16;;;;;;;4.93;4.03;;;;;;;10.71;100.00;99986.75;5026364;28;20457;-69
2023/11/11 11:03:41;;;;;;;8.75;6.00;;;;;;;10.59;100.00;99991.19;5014614;28;20061;-69
2023/11/11 11:06:26;;;;;;;7.90;5.65;;;;;;;10.47;100.00;99979.50;5014561;28;20069;-69
2023/11/11 11:09:18;;;;;;;11.43;5.93;;;;;;;10.44;100.00;99998.78;5011116;28;20034;-69
2023/11/11 11:11:59;;;;;;;12.43;6.38;;;;;;;10.38;100.00;100002.31;5006978;28;20124;-69
2023/11/11 11:14:37;;;;;;;10.43;6.40;;;;;;;10.20;100.00;99982.34;5013976;28;20036;-69
2023/11/11 11:17:03;;;;;;;11.32;5.70;;;;;;;10.31;100.00;99997.00;5014082;28;20030;-69
2023/11/11 11:19:29;;;;;;;11.77;5.90;;;;;;;10.35;100.00;100006.28;5012778;28;20061;-69
2023/11/11 11:21:56;;;;;;;11.93;6.45;;;;;;;10.28;100.00;99998.25;5013515;28;20445;-69
2023/11/11 11:24:24;;;;;;;9.40;6.03;;;;;;;10.39;100.00;100003.97;5013553;28;20034;-69